Time;durP1;ratioP1;P1;durP2;ratioP2;P2;SDS_P1;SDS_P2;PMS_P1;PMS_P2;Temp;Humidity;BMP_temperature;BMP_pressure;BME280_temperature;BME280_humidity;BME280_pressure;Samples;Min_cycle;Max_cycle;Signal;HPM_P1;HPM_P2
2022/11/24 00:01:23;;;;;;;3.17;2.10;;;3.70;99.90;;;;;;4970266;28;20058;-78
2022/11/24 00:03:55;;;;;;;9.38;2.92;;;3.60;99.90;;;;;;4970432;28;20111;-79
2022/11/24 00:06:20;;;;;;;9.07;3.28;;;3.60;99.90;;;;;;4970266;28;20026;-78
2022/11/24 00:08:46;;;;;;;10.85;3.10;;;;;;;;;;4969969;28;20019;-79
2022/11/24 00:11:18;;;;;;;11.60;4.30;;;3.60;99.90;;;;;;4969603;28;20045;-78
2022/11/24 00:13:44;;;;;;;13.90;3.08;;;;;;;;;;4969828;28;20023;-79
2022/11/24 00:16:21;;;;;;;9.25;3.08;;;3.70;99.90;;;;;;4970208;28;20033;-79
2022/11/24 00:18:48;;;;;;;7.38;2.90;;;3.70;99.90;;;;;;4969864;28;20038;-79
2022/11/24 00:21:16;;;;;;;9.40;3.03;;;3.60;99.90;;;;;;4970118;28;20043;-79
2022/11/24 00:23:42;;;;;;;11.30;2.20;;;;;;;;;;4969861;28;20027;-78
2022/11/24 00:26:22;;;;;;;4.90;2.45;;;3.60;99.90;;;;;;4969917;28;20061;-79
2022/11/24 00:28:50;;;;;;;5.43;3.28;;;3.50;99.90;;;;;;4969555;28;20023;-78
2022/11/24 00:31:18;;;;;;;2.95;2.05;;;3.60;99.90;;;;;;4970315;28;20304;-79
2022/11/24 00:33:45;;;;;;;4.32;2.53;;;3.70;99.90;;;;;;4970171;28;20038;-79
2022/11/24 00:36:10;;;;;;;10.40;1.92;;;3.90;99.90;;;;;;4970211;28;20027;-79
2022/11/24 00:38:36;;;;;;;6.63;1.77;;;3.50;99.90;;;;;;4969775;28;20078;-79
2022/11/24 00:41:02;;;;;;;5.43;1.65;;;;;;;;;;4970036;28;20043;-79
2022/11/24 00:43:28;;;;;;;2.63;1.33;;;;;;;;;;4969815;28;20409;-79
2022/11/24 00:45:54;;;;;;;6.35;2.22;;;;;;;;;;4969616;28;20031;-78
2022/11/24 00:48:20;;;;;;;2.40;2.05;;;;;;;;;;4969786;28;20023;-78
2022/11/24 00:50:55;;;;;;;1.83;1.73;;;3.30;99.90;;;;;;4969704;28;20023;-78
2022/11/24 00:53:20;;;;;;;2.72;1.45;;;3.30;99.90;;;;;;4969383;28;20043;-78
2022/11/24 00:55:49;;;;;;;3.58;2.20;;;3.40;99.90;;;;;;4969735;28;20081;-78
2022/11/24 00:58:14;;;;;;;1.83;1.38;;;3.10;99.90;;;;;;4969704;28;20023;-79
2022/11/24 01:00:40;;;;;;;2.80;1.63;;;;;;;;;;4969462;28;20042;-79
2022/11/24 01:03:06;;;;;;;9.30;2.25;;;;;;;;;;4969605;28;20101;-78
2022/11/24 01:05:35;;;;;;;3.45;2.83;;;3.20;99.90;;;;;;4969410;28;20042;-79
2022/11/24 01:08:01;;;;;;;5.63;2.33;;;3.20;99.90;;;;;;4969598;28;20030;-79
2022/11/24 01:10:27;;;;;;;1.35;1.10;;;;;;;;;;4969185;28;20464;-78
2022/11/24 01:12:52;;;;;;;3.47;1.95;;;3.40;99.90;;;;;;4952251;28;20118;-79
2022/11/24 01:15:18;;;;;;;7.45;2.00;;;;;;;;;;4968903;28;20033;-79
2022/11/24 01:17:44;;;;;;;10.68;3.28;;;;;;;;;;4969572;28;20035;-79
2022/11/24 01:20:10;;;;;;;7.55;3.10;;;2.90;99.90;;;;;;4969385;28;20074;-79
2022/11/24 01:22:37;;;;;;;14.82;2.15;;;2.90;99.90;;;;;;4971773;28;20081;-79
2022/11/24 01:25:05;;;;;;;7.53;2.78;;;2.90;99.90;;;;;;4972813;28;20542;-78
2022/11/24 01:27:31;;;;;;;7.28;2.30;;;;;;;;;;4972863;28;20042;-78
2022/11/24 01:29:57;;;;;;;5.93;2.28;;;;;;;;;;4972824;28;20027;-78
2022/11/24 01:32:22;;;;;;;5.00;2.25;;;2.90;99.90;;;;;;4973156;28;20038;-78
2022/11/24 01:34:48;;;;;;;3.13;2.40;;;;;;;;;;4972546;28;20061;-79
2022/11/24 01:37:15;;;;;;;4.50;1.90;;;;;;;;;;4972914;28;20109;-79
2022/11/24 01:39:40;;;;;;;10.93;1.92;;;2.60;99.90;;;;;;4972701;28;20058;-78
2022/11/24 01:42:06;;;;;;;5.13;2.08;;;2.70;99.90;;;;;;4972895;28;20496;-79
2022/11/24 01:44:32;;;;;;;3.38;2.03;;;;;;;;;;4972293;28;20536;-79
2022/11/24 01:47:06;;;;;;;5.38;3.15;;;2.50;99.90;;;;;;4972698;28;20038;-79
2022/11/24 01:49:38;;;;;;;7.95;2.13;;;3.00;99.90;;;;;;4972299;28;20129;-79
2022/11/24 01:52:10;;;;;;;2.33;1.67;;;2.50;99.90;;;;;;4972554;28;20051;-79
2022/11/24 01:54:41;;;;;;;2.72;1.45;;;3.10;99.90;;;;;;4974733;28;20093;-78
2022/11/24 01:57:16;;;;;;;8.80;2.25;;;3.20;99.90;;;;;;4972562;28;20031;-79
2022/11/24 01:59:45;;;;;;;7.68;1.33;;;3.30;99.90;;;;;;4972168;28;20046;-78
2022/11/24 02:02:11;;;;;;;11.80;1.35;;;3.30;99.90;;;;;;4972653;28;20424;-78
2022/11/24 02:04:38;;;;;;;2.03;1.75;;;3.60;99.90;;;;;;4971041;28;20034;-79
2022/11/24 02:07:06;;;;;;;8.52;1.88;;;3.60;99.90;;;;;;4972274;28;20023;-78
2022/11/24 02:09:58;;;;;;;5.35;2.15;;;3.70;99.90;;;;;;4971978;28;20411;-79
2022/11/24 02:12:26;;;;;;;10.82;1.70;;;3.50;99.90;;;;;;4972108;28;20034;-79
2022/11/24 02:14:52;;;;;;;3.28;1.50;;;3.50;99.90;;;;;;4971953;28;20035;-79
2022/11/24 02:17:18;;;;;;;2.17;1.60;;;3.40;99.90;;;;;;4971980;28;20038;-78
2022/11/24 02:19:53;;;;;;;4.28;1.90;;;3.40;99.90;;;;;;4972128;28;20496;-78
2022/11/24 02:22:40;;;;;;;4.80;1.65;;;3.40;99.90;;;;;;4971640;28;20105;-78
2022/11/24 02:25:15;;;;;;;5.18;3.00;;;3.20;99.90;;;;;;4971810;28;20022;-78
2022/11/24 02:27:43;;;;;;;8.98;2.97;;;3.50;99.90;;;;;;4971639;28;20085;-78
2022/11/24 02:30:09;;;;;;;16.20;2.45;;;;;;;;;;4971634;28;20031;-79
2022/11/24 02:32:39;;;;;;;5.38;2.03;;;3.60;99.90;;;;;;4971527;28;20027;-79
2022/11/24 02:35:06;;;;;;;4.28;1.98;;;3.80;99.90;;;;;;4971273;28;20057;-78
2022/11/24 02:37:32;;;;;;;2.93;1.70;;;;;;;;;;4971408;28;20034;-79
2022/11/24 02:39:58;;;;;;;3.38;2.03;;;;;;;;;;4971612;28;20309;-78
2022/11/24 02:42:25;;;;;;;4.97;1.65;;;3.70;99.90;;;;;;4971841;28;20035;-78
2022/11/24 02:44:56;;;;;;;18.92;3.75;;;3.60;99.90;;;;;;4985936;28;20370;-78
2022/11/24 02:47:21;;;;;;;7.90;2.90;;;3.40;99.90;;;;;;4971889;28;20062;-78
2022/11/24 02:49:47;;;;;;;3.28;1.95;;;;;;;;;;4971230;28;20618;-78
2022/11/24 02:52:13;;;;;;;4.18;2.58;;;3.10;99.90;;;;;;4981674;28;20423;-78
2022/11/24 02:54:39;;;;;;;6.45;1.73;;;;;;;;;;4973016;28;20058;-78
2022/11/24 02:57:04;;;;;;;9.45;1.98;;;3.30;99.90;;;;;;4971301;28;20053;-79
2022/11/24 02:59:30;;;;;;;3.75;1.85;;;;;;;;;;4970861;28;20031;-79
2022/11/24 03:01:56;;;;;;;2.45;2.13;;;3.00;99.90;;;;;;4971127;28;20042;-79
2022/11/24 03:04:22;;;;;;;5.10;1.98;;;3.20;99.90;;;;;;4953453;28;20038;-78
2022/11/24 03:06:47;;;;;;;8.43;1.60;;;2.80;99.90;;;;;;4970830;28;20030;-78
2022/11/24 03:09:13;;;;;;;7.38;2.15;;;;;;;;;;4971132;28;20516;-78
2022/11/24 03:11:39;;;;;;;7.50;2.17;;;3.00;99.90;;;;;;4981013;28;20456;-78
2022/11/24 03:14:05;;;;;;;6.78;2.03;;;;;;;;;;4972960;28;20101;-78
2022/11/24 03:16:31;;;;;;;13.07;1.98;;;2.90;99.90;;;;;;4971087;28;20763;-79
2022/11/24 03:18:57;;;;;;;13.20;2.17;;;;;;;;;;4970626;28;20031;-78
2022/11/24 03:21:23;;;;;;;1.48;1.08;;;2.90;99.90;;;;;;4970892;28;20085;-78
2022/11/24 03:23:49;;;;;;;1.95;1.23;;;3.10;99.90;;;;;;4971211;28;20416;-78
2022/11/24 03:26:17;;;;;;;2.15;1.60;;;3.30;99.90;;;;;;4970904;28;20034;-78
2022/11/24 03:28:43;;;;;;;5.45;1.88;;;;;;;;;;4970637;28;20030;-78
2022/11/24 03:31:09;;;;;;;4.00;1.77;;;3.60;99.90;;;;;;4970918;28;20092;-78
2022/11/24 03:33:35;;;;;;;8.27;1.80;;;3.50;99.90;;;;;;4970232;28;20106;-79
2022/11/24 03:36:01;;;;;;;1.98;1.75;;;3.80;99.90;;;;;;4953234;28;20130;-79
2022/11/24 03:38:27;;;;;;;3.78;2.28;;;;;;;;;;4970377;28;20500;-78
2022/11/24 03:40:53;;;;;;;7.10;2.15;;;;;;;;;;4964184;28;20149;-78
2022/11/24 03:43:19;;;;;;;1.70;1.60;;;2.90;99.90;;;;;;4970468;28;20030;-78
2022/11/24 03:45:45;;;;;;;2.85;1.65;;;2.80;99.90;;;;;;4982329;28;20034;-78
2022/11/24 03:48:12;;;;;;;3.55;1.20;;;3.00;99.90;;;;;;4971324;28;20027;-78
2022/11/24 03:50:38;;;;;;;1.83;1.42;;;;;;;;;;4970526;28;20033;-79
2022/11/24 03:53:04;;;;;;;3.80;1.23;;;;;;;;;;4970777;28;20042;-78
2022/11/24 03:55:30;;;;;;;3.35;1.70;;;;;;;;;;4970323;28;20026;-79
2022/11/24 03:57:56;;;;;;;3.00;1.73;;;;;;;;;;4969635;28;20019;-79
2022/11/24 04:00:22;;;;;;;2.60;1.50;;;;;;;;;;4958479;28;20038;-79
2022/11/24 04:02:48;;;;;;;4.88;1.25;;;;;;;;;;4970165;28;20042;-79
2022/11/24 04:05:14;;;;;;;6.85;1.92;;;;;;;;;;4952549;28;20031;-78
2022/11/24 04:07:40;;;;;;;5.57;1.83;;;;;;;;;;4970480;28;20026;-78
2022/11/24 04:10:06;;;;;;;16.73;2.60;;;2.70;99.90;;;;;;4969919;28;20081;-79
2022/11/24 04:12:44;;;;;;;2.67;1.10;;;;;;;;;;4970518;28;20038;-79
2022/11/24 04:15:12;;;;;;;4.38;1.27;;;2.90;99.90;;;;;;4969496;28;20472;-79
2022/11/24 04:17:38;;;;;;;7.78;1.90;;;3.00;99.90;;;;;;4969960;28;20035;-78
2022/11/24 04:20:04;;;;;;;4.68;1.35;;;2.90;99.90;;;;;;4969510;28;20038;-79
2022/11/24 04:22:30;;;;;;;4.85;0.88;;;;;;;;;;4969799;28;20026;-78
2022/11/24 04:24:56;;;;;;;2.60;1.38;;;;;;;;;;4969898;28;20138;-78
2022/11/24 04:27:22;;;;;;;8.18;2.33;;;;;;;;;;4969779;28;20394;-79
2022/11/24 04:29:49;;;;;;;4.38;1.63;;;;;;;;;;4969750;28;20484;-78
2022/11/24 04:32:15;;;;;;;3.72;1.95;;;;;;;;;;4969792;28;20109;-78
2022/11/24 04:34:41;;;;;;;1.20;1.10;;;2.90;99.90;;;;;;4969716;28;20051;-78
2022/11/24 04:37:07;;;;;;;1.88;1.30;;;;;;;;;;4952268;28;20484;-78
2022/11/24 04:39:33;;;;;;;0.60;0.60;;;2.70;99.90;;;;;;4969691;28;20536;-78
2022/11/24 04:41:59;;;;;;;0.68;0.68;;;;;;;;;;4969870;28;20026;-78
2022/11/24 04:44:24;;;;;;;7.95;1.42;;;2.80;99.90;;;;;;4969448;28;20027;-79
2022/11/24 04:46:50;;;;;;;3.85;1.38;;;;;;;;;;4969171;28;20031;-78
2022/11/24 04:49:16;;;;;;;3.70;1.90;;;;;;;;;;4969640;28;20019;-78
2022/11/24 04:51:42;;;;;;;9.45;2.05;;;;;;;;;;4969697;28;20042;-79
2022/11/24 04:54:10;;;;;;;5.03;2.53;;;2.70;99.90;;;;;;4969771;28;20472;-79
2022/11/24 04:56:36;;;;;;;17.15;5.40;;;2.70;99.90;;;;;;4952957;28;20057;-79
2022/11/24 04:59:03;;;;;;;28.75;3.58;;;;;;;;;;4973199;28;20504;-78
2022/11/24 05:01:28;;;;;;;3.05;2.15;;;2.70;99.90;;;;;;4972974;28;20058;-78
2022/11/24 05:03:54;;;;;;;4.20;1.25;;;2.90;99.90;;;;;;4973385;28;20031;-78
2022/11/24 05:06:20;;;;;;;3.85;1.73;;;3.00;99.90;;;;;;4973215;28;20023;-78
2022/11/24 05:08:47;;;;;;;1.02;0.75;;;3.00;99.90;;;;;;4973301;28;20027;-78
2022/11/24 05:11:13;;;;;;;1.38;1.20;;;2.90;99.90;;;;;;4973208;28;20030;-79
2022/11/24 05:13:39;;;;;;;3.35;1.63;;;;;;;;;;4972807;28;20834;-78
2022/11/24 05:16:05;;;;;;;2.97;1.92;;;2.80;99.90;;;;;;4972813;28;20547;-78
2022/11/24 05:18:31;;;;;;;4.32;1.77;;;;;;;;;;4955565;28;20034;-78
2022/11/24 05:20:58;;;;;;;1.58;1.48;;;2.90;99.90;;;;;;4972860;28;20039;-78
2022/11/24 05:23:24;;;;;;;0.77;0.70;;;;;;;;;;4973061;28;20026;-78
2022/11/24 05:25:50;;;;;;;8.48;1.80;;;;;;;;;;4972867;28;20676;-78
2022/11/24 05:28:16;;;;;;;10.07;1.65;;;2.80;99.90;;;;;;4972617;28;20034;-79
2022/11/24 05:30:42;;;;;;;5.05;2.20;;;;;;;;;;4955175;28;20027;-78
2022/11/24 05:33:17;;;;;;;4.80;2.38;;;3.60;99.90;;;;;;4972902;28;20031;-78
2022/11/24 05:35:44;;;;;;;4.20;2.25;;;3.30;99.90;;;;;;4972608;28;20042;-78
2022/11/24 05:38:10;;;;;;;4.85;2.25;;;;;;;;;;4972928;28;20026;-78
2022/11/24 05:40:37;;;;;;;8.25;2.20;;;3.10;99.90;;;;;;4986206;28;20062;-78
2022/11/24 05:43:03;;;;;;;8.00;3.10;;;2.90;99.90;;;;;;4972348;28;20031;-78
2022/11/24 05:45:29;;;;;;;9.77;2.83;;;;;;;;;;4972088;28;20408;-78
2022/11/24 05:47:55;;;;;;;6.57;3.30;;;;;;;;;;4972492;28;20030;-79
2022/11/24 05:50:21;;;;;;;13.50;5.00;;;3.00;99.90;;;;;;4971911;28;20030;-78
2022/11/24 05:52:48;;;;;;;9.05;4.45;;;3.10;99.90;;;;;;4972557;28;20535;-78
2022/11/24 05:55:15;;;;;;;9.40;5.00;;;;;;;;;;4972478;28;20038;-78
2022/11/24 05:57:41;;;;;;;5.05;2.63;;;3.10;99.90;;;;;;4972344;28;20030;-78
2022/11/24 06:00:08;;;;;;;17.60;1.30;;;3.20;99.90;;;;;;4972006;28;20026;-78
2022/11/24 06:02:34;;;;;;;;;;;3.20;99.90;;;;;;4973045;28;20050;-78
2022/11/24 06:05:00;;;;;;;8.55;3.17;;;3.30;99.90;;;;;;4972314;28;19914;-78
2022/11/24 06:07:26;;;;;;;13.95;2.17;;;;;;;;;;4986554;28;20381;-78
2022/11/24 06:09:52;;;;;;;5.82;2.22;;;;;;;;;;4971438;28;20162;-78
2022/11/24 06:12:19;;;;;;;3.67;2.30;;;;;;;;;;4970475;28;20109;-78
2022/11/24 06:14:45;;;;;;;4.35;1.83;;;;;;;;;;4965420;28;20098;-78
2022/11/24 06:17:11;;;;;;;5.82;2.05;;;3.30;99.90;;;;;;4967567;28;20038;-78
2022/11/24 06:19:37;;;;;;;7.05;2.22;;;;;;;;;;4966098;28;20748;-78
2022/11/24 06:22:03;;;;;;;7.95;2.95;;;;;;;;;;4970938;28;20495;-78
2022/11/24 06:24:29;;;;;;;22.80;3.08;;;3.60;99.90;;;;;;4967589;28;20037;-78
2022/11/24 06:26:55;;;;;;;10.85;2.33;;;4.00;99.90;;;;;;4961146;28;20109;-79
2022/11/24 06:29:21;;;;;;;2.17;1.65;;;;;;;;;;4968030;28;20050;-78
2022/11/24 06:31:47;;;;;;;4.10;2.55;;;;;;;;;;4968721;28;20035;-81
2022/11/24 06:34:13;;;;;;;8.68;3.08;;;;;;;;;;4969162;28;20035;-87
2022/11/24 06:36:39;;;;;;;7.68;2.63;;;;;;;;;;4966232;28;20023;-86
2022/11/24 06:39:05;;;;;;;14.43;2.83;;;3.20;99.90;;;;;;4970127;28;20023;-87
2022/11/24 06:41:31;;;;;;;3.78;2.33;;;3.30;99.90;;;;;;4952105;28;20051;-82
2022/11/24 06:43:57;;;;;;;3.55;2.38;;;;;;;;;;4968250;28;20436;-77
2022/11/24 06:46:23;;;;;;;5.35;2.60;;;3.50;99.90;;;;;;4969424;28;20030;-77
2022/11/24 06:48:52;;;;;;;5.40;2.30;;;3.70;99.90;;;;;;4951124;28;20539;-77
2022/11/24 06:51:18;;;;;;;8.25;2.72;;;;;;;;;;4968126;28;20421;-77
2022/11/24 06:53:44;;;;;;;8.80;2.80;;;3.40;99.90;;;;;;4969044;28;20074;-77
2022/11/24 06:56:11;;;;;;;3.63;1.80;;;3.40;99.90;;;;;;4970161;28;20031;-77
2022/11/24 06:58:42;;;;;;;2.05;1.73;;;3.60;99.90;;;;;;4969547;28;20026;-77
2022/11/24 07:01:08;;;;;;;1.20;1.05;;;3.80;99.90;;;;;;4952656;28;20043;-78
2022/11/24 07:03:34;;;;;;;6.13;2.65;;;4.20;99.90;;;;;;4969646;28;20115;-77
2022/11/24 07:06:00;;;;;;;6.18;1.90;;;;;;;;;;4969667;28;20037;-77
2022/11/24 07:08:26;;;;;;;7.05;1.42;;;;;;;;;;4970164;28;20027;-77
2022/11/24 07:10:52;;;;;;;6.10;1.27;;;;;;;;;;4969622;28;20022;-77
2022/11/24 07:13:20;;;;;;;1.45;1.15;;;4.90;99.90;;;;;;4969041;28;20058;-78
2022/11/24 07:15:46;;;;;;;5.65;1.48;;;4.10;99.90;;;;;;4952166;28;20081;-77
2022/11/24 07:18:12;;;;;;;1.40;1.23;;;;;;;;;;4969734;28;20019;-78
2022/11/24 07:20:38;;;;;;;7.93;3.08;;;;;;;;;;4969046;28;20046;-85
2022/11/24 07:23:05;;;;;;;6.55;3.42;;;;;;;;;;4970120;28;20027;-85
2022/11/24 07:25:31;;;;;;;11.63;2.22;;;;;;;;;;4968327;28;20035;-83
2022/11/24 07:27:58;;;;;;;5.18;1.23;;;4.40;99.90;;;;;;4968889;28;20097;-83
2022/11/24 07:30:24;;;;;;;2.92;2.35;;;;;;;;;;4969698;28;20023;-84
2022/11/24 07:32:50;;;;;;;3.00;1.85;;;;;;;;;;4974324;28;20088;-83
2022/11/24 07:35:16;;;;;;;10.68;1.73;;;;;;;;;;4969040;28;20138;-82
2022/11/24 07:37:42;;;;;;;14.70;4.28;;;;;;;;;;4968724;28;20748;-84
2022/11/24 07:40:09;;;;;;;14.52;5.60;;;5.40;99.90;;;;;;4969028;28;20113;-78
2022/11/24 07:42:35;;;;;;;7.28;3.63;;;;;;;;;;4966993;28;20030;-76
2022/11/24 07:45:00;;;;;;;10.23;4.15;;;5.70;99.90;;;;;;4967950;28;20550;-83
2022/11/24 07:47:27;;;;;;;11.95;4.95;;;;;;;;;;4969489;28;20035;-81
2022/11/24 07:49:53;;;;;;;10.85;3.72;;;;;;;;;;4967982;28;20023;-84
2022/11/24 07:52:18;;;;;;;20.48;3.88;;;;;;;;;;4969161;28;20054;-82
2022/11/24 07:54:44;;;;;;;4.05;3.22;;;;;;;;;;4968793;28;20035;-84
2022/11/24 07:57:10;;;;;;;14.43;4.93;;;;;;;;;;4967615;28;20038;-85
2022/11/24 07:59:36;;;;;;;7.43;4.43;;;;;;;;;;4968141;28;20122;-86
2022/11/24 08:02:02;;;;;;;13.75;5.03;;;;;;;;;;4966673;28;20050;-84
2022/11/24 08:04:28;;;;;;;9.40;4.15;;;;;;;;;;4969033;28;20046;-81
2022/11/24 08:06:54;;;;;;;10.65;5.40;;;;;;;;;;4968576;28;20046;-81
2022/11/24 08:09:20;;;;;;;3.78;2.70;;;;;;;;;;4965982;28;20027;-80
2022/11/24 08:11:46;;;;;;;3.60;2.58;;;;;;;;;;4968051;28;20023;-83
2022/11/24 08:14:12;;;;;;;4.72;2.38;;;;;;;;;;4967241;28;20031;-83
2022/11/24 08:16:38;;;;;;;7.78;4.03;;;;;;;;;;4968748;28;20030;-85
2022/11/24 08:19:04;;;;;;;5.20;3.30;;;;;;;;;;4968548;28;20035;-85
2022/11/24 08:21:31;;;;;;;7.13;4.35;;;;;;;;;;4950909;28;20035;-82
2022/11/24 08:23:57;;;;;;;12.67;6.23;;;24.50;59.10;;;;;;4955889;28;20046;-81
2022/11/24 08:26:23;;;;;;;13.32;9.55;;;;;;;;;;4966287;28;21599;-82
2022/11/24 08:28:56;;;;;;;4.43;3.55;;;27.80;49.40;;;;;;4968028;28;20054;-84
2022/11/24 08:31:23;;;;;;;8.10;4.97;;;;;;;;;;4951225;28;20042;-80
2022/11/24 08:33:49;;;;;;;14.20;5.43;;;;;;;;;;4972281;28;20039;-80
2022/11/24 08:36:18;;;;;;;8.38;5.15;;;26.90;55.80;;;;;;4971789;28;20034;-79
2022/11/24 08:38:44;;;;;;;8.27;4.43;;;;;;;;;;4972392;28;20419;-79
2022/11/24 08:41:12;;;;;;;8.73;4.43;;;23.40;49.90;;;;;;4970116;28;20042;-81
2022/11/24 08:43:38;;;;;;;9.48;4.97;;;22.50;60.30;;;;;;4953520;28;20492;-80
2022/11/24 08:46:06;;;;;;;8.38;4.88;;;22.90;54.60;;;;;;4972459;28;20033;-80
2022/11/24 08:48:33;;;;;;;10.13;5.55;;;23.50;50.90;;;;;;4972684;28;20074;-81
2022/11/24 08:50:59;;;;;;;13.35;7.20;;;;;;;;;;4971351;28;20038;-80
2022/11/24 08:53:25;;;;;;;8.88;6.47;;;;;;;;;;4971593;28;20050;-78
2022/11/24 08:55:51;;;;;;;6.50;3.00;;;;;;;;;;4971831;28;20480;-87
2022/11/24 08:58:17;;;;;;;9.27;2.80;;;;;;;;;;4970534;28;20470;-84
2022/11/24 09:00:43;;;;;;;7.38;3.72;;;21.30;61.90;;;;;;4972320;28;20122;-84
2022/11/24 09:03:10;;;;;;;6.20;3.92;;;21.40;64.60;;;;;;4973734;28;20019;-84
2022/11/24 09:05:36;;;;;;;7.90;2.63;;;;;;;;;;4953679;28;20107;-81
2022/11/24 09:08:03;;;;;;;12.60;5.18;;;;;;;;;;4971885;28;20022;-79
2022/11/24 09:10:28;;;;;;;12.60;6.35;;;23.80;59.70;;;;;;4972415;28;20515;-78
2022/11/24 09:12:54;;;;;;;14.07;7.55;;;;;;;;;;4971429;28;20035;-82
2022/11/24 09:15:21;;;;;;;15.73;8.25;;;;;;;;;;4968546;28;20073;-81
2022/11/24 09:17:47;;;;;;;13.88;7.40;;;;;;;;;;4967066;28;20067;-78
2022/11/24 09:20:13;;;;;;;18.33;9.27;;;25.60;51.60;;;;;;4971229;28;20069;-79
2022/11/24 09:22:40;;;;;;;17.63;5.10;;;25.30;54.90;;;;;;4971168;28;20041;-78
2022/11/24 09:25:06;;;;;;;;;;;25.50;46.40;;;;;;4986243;28;20033;-78
2022/11/24 09:27:32;;;;;;;13.60;3.00;;;;;;;;;;4970662;28;19998;-81
2022/11/24 09:29:58;;;;;;;9.33;1.70;;;;;;;;;;4969019;28;20034;-81
2022/11/24 09:32:24;;;;;;;11.52;4.68;;;;;;;;;;4971809;28;20509;-79
2022/11/24 09:34:50;;;;;;;18.15;6.75;;;;;;;;;;4970933;28;20022;-80
2022/11/24 09:37:17;;;;;;;10.65;3.95;;;24.30;48.70;;;;;;4971430;28;20118;-80
2022/11/24 09:39:43;;;;;;;7.75;2.65;;;;;;;;;;4971721;28;20042;-79
2022/11/24 09:42:30;;;;;;;6.85;1.80;;;24.50;53.80;;;;;;4961775;28;20039;-80
2022/11/24 09:44:56;;;;;;;5.82;1.58;;;;;;;;;;4968163;28;20034;-80
2022/11/24 09:47:42;;;;;;;6.90;1.65;;;25.20;43.90;;;;;;4970380;28;20031;-80
2022/11/24 09:50:15;;;;;;;5.72;1.88;;;26.00;42.90;;;;;;4966851;28;20767;-79
2022/11/24 09:52:52;;;;;;;5.97;1.38;;;26.40;42.40;;;;;;4971358;28;20061;-79
2022/11/24 09:55:33;;;;;;;;;;;26.50;42.40;;;;;;4971594;28;20031;-80
2022/11/24 09:58:11;;;;;;;5.78;1.80;;;26.40;41.70;;;;;;4970237;28;19906;-79
2022/11/24 10:00:37;;;;;;;3.63;1.50;;;26.80;42.00;;;;;;4969897;28;20054;-83
2022/11/24 10:03:04;;;;;;;4.33;1.37;;;;;;;;;;4970875;28;20042;-87
2022/11/24 10:05:35;;;;;;;4.10;1.30;;;26.80;39.90;;;;;;4971318;28;20038;-83
2022/11/24 10:08:39;;;;;;;8.50;2.40;;;27.30;39.80;;;;;;4970365;28;20038;-83
2022/11/24 10:11:12;;;;;;;10.73;2.58;;;27.80;40.20;;;;;;4893469;29;20122;-89
2022/11/24 10:14:22;;;;;;;7.18;3.42;;;29.00;47.90;;;;;;4910649;29;20032;-84
2022/11/24 10:17:07;;;;;;;9.50;2.95;;;29.60;38.40;;;;;;4836264;29;20084;-82
2022/11/24 10:19:46;;;;;;;6.30;3.38;;;30.30;37.70;;;;;;4835749;29;20187;-83
2022/11/24 10:22:22;;;;;;;6.55;2.45;;;30.80;37.20;;;;;;4836070;29;20412;-83
2022/11/24 10:25:15;;;;;;;11.20;4.20;;;31.10;37.50;;;;;;4835505;29;20041;-83
2022/11/24 10:27:48;;;;;;;8.55;3.22;;;31.30;43.80;;;;;;4836474;29;20090;-83
2022/11/24 10:30:19;;;;;;;10.60;3.60;;;31.50;35.50;;;;;;4836118;29;20477;-82
2022/11/24 10:32:53;;;;;;;7.85;3.22;;;30.80;34.70;;;;;;4817318;29;20559;-84
2022/11/24 10:35:27;;;;;;;3.75;1.52;;;30.40;41.40;;;;;;4829230;29;20034;-84
2022/11/24 10:38:06;;;;;;;5.88;2.05;;;29.70;33.60;;;;;;4836191;29;20072;-80
2022/11/24 10:40:42;;;;;;;6.63;3.97;;;28.90;34.20;;;;;;4820317;29;20046;-81
2022/11/24 10:43:11;;;;;;;3.53;1.50;;;28.50;37.60;;;;;;4835440;29;20048;-85
2022/11/24 10:45:38;;;;;;;11.25;3.88;;;27.90;35.40;;;;;;4838755;29;20030;-84
2022/11/24 10:48:11;;;;;;;3.78;1.90;;;27.50;35.00;;;;;;4872521;29;20598;-85
2022/11/24 10:50:39;;;;;;;2.80;1.30;;;27.50;35.70;;;;;;4926276;28;20540;-82
2022/11/24 10:53:08;;;;;;;6.57;2.30;;;27.30;35.60;;;;;;4962543;28;20063;-82
2022/11/24 10:55:55;;;;;;;2.30;1.35;;;27.00;37.20;;;;;;4968809;28;20512;-81
2022/11/24 10:58:39;;;;;;;2.88;1.00;;;26.40;35.20;;;;;;4970204;28;20090;-81
2022/11/24 11:01:13;;;;;;;4.57;1.08;;;26.80;45.30;;;;;;4970043;28;20057;-81
2022/11/24 11:03:50;;;;;;;5.35;1.80;;;26.40;34.90;;;;;;4982561;28;20078;-81
2022/11/24 11:06:19;;;;;;;5.57;1.52;;;26.70;35.00;;;;;;4969806;28;20116;-81
2022/11/24 11:08:45;;;;;;;1.92;1.08;;;;;;;;;;4970293;28;20122;-81
2022/11/24 11:11:29;;;;;;;6.78;1.52;;;27.00;34.40;;;;;;4969693;28;20162;-81
2022/11/24 11:13:58;;;;;;;3.25;1.17;;;26.80;42.00;;;;;;4969260;28;20366;-81
2022/11/24 11:16:24;;;;;;;4.00;1.85;;;;;;;;;;4952679;28;20058;-81
2022/11/24 11:18:50;;;;;;;5.93;1.35;;;;;;;;;;4966875;28;20061;-81
2022/11/24 11:21:36;;;;;;;3.73;0.90;;;24.10;48.60;;;;;;4969722;28;20019;-81
2022/11/24 11:24:11;;;;;;;4.28;1.23;;;23.10;39.10;;;;;;4969793;28;20027;-81
2022/11/24 11:26:38;;;;;;;4.38;1.27;;;;;;;;;;4969919;28;20118;-82
2022/11/24 11:29:06;;;;;;;2.03;1.10;;;22.50;43.70;;;;;;4969253;28;20062;-81
2022/11/24 11:31:37;;;;;;;1.48;0.88;;;21.70;41.30;;;;;;4969546;28;20820;-80
2022/11/24 11:34:08;;;;;;;4.53;1.48;;;21.40;42.20;;;;;;4968939;28;20373;-83
2022/11/24 11:36:39;;;;;;;7.00;1.40;;;21.20;44.70;;;;;;4971411;28;20062;-78
2022/11/24 11:39:05;;;;;;;6.13;1.77;;;;;;;;;;4971543;28;20031;-81
2022/11/24 11:41:38;;;;;;;1.80;1.00;;;21.20;53.10;;;;;;4968771;28;20034;-82
2022/11/24 11:44:24;;;;;;;7.75;1.63;;;21.40;42.60;;;;;;4968549;28;20062;-85
2022/11/24 11:46:52;;;;;;;5.18;1.48;;;21.30;43.20;;;;;;4969020;28;20110;-83
2022/11/24 11:49:17;;;;;;;;;;;21.30;42.90;;;;;;4969472;28;20026;-83
2022/11/24 11:52:06;;;;;;;3.13;1.80;;;21.00;43.40;;;;;;4968721;28;19925;-84
2022/11/24 11:54:40;;;;;;;5.45;1.30;;;21.20;47.30;;;;;;4968787;28;20113;-84
2022/11/24 11:57:35;;;;;;;4.38;1.33;;;20.50;55.00;;;;;;4968335;28;20023;-82
2022/11/24 12:00:20;;;;;;;4.43;1.98;;;20.50;54.30;;;;;;4951444;28;20030;-82
2022/11/24 12:03:11;;;;;;;1.25;1.10;;;20.70;54.60;;;;;;4968205;28;20030;-82
2022/11/24 12:06:04;;;;;;;3.42;1.52;;;20.70;50.00;;;;;;4969414;28;20134;-86
2022/11/24 12:08:53;;;;;;;2.88;1.35;;;20.50;44.20;;;;;;4951478;28;20034;-82
2022/11/24 12:11:19;;;;;;;2.47;1.33;;;;;;;;;;4951749;28;20039;-85
2022/11/24 12:14:03;;;;;;;7.07;2.08;;;20.40;55.10;;;;;;4950591;28;20019;-84
2022/11/24 12:16:40;;;;;;;3.10;1.33;;;20.40;44.30;;;;;;4968757;28;20025;-84
2022/11/24 12:19:39;;;;;;;3.97;1.77;;;20.00;44.80;;;;;;4969031;28;20124;-85
2022/11/24 12:22:25;;;;;;;4.43;1.60;;;19.70;56.60;;;;;;4975611;28;20081;-84
2022/11/24 12:25:15;;;;;;;3.42;1.00;;;19.40;46.10;;;;;;4965854;28;20483;-83
2022/11/24 12:28:05;;;;;;;3.85;1.00;;;19.20;45.80;;;;;;4968842;28;20031;-83
2022/11/24 12:30:48;;;;;;;3.15;1.20;;;19.00;45.90;;;;;;4968758;28;20488;-82
2022/11/24 12:33:33;;;;;;;3.75;2.20;;;18.90;46.00;;;;;;4950801;28;20150;-82
2022/11/24 12:36:36;;;;;;;6.35;1.55;;;19.10;46.30;;;;;;4968385;28;20026;-81
2022/11/24 12:39:31;;;;;;;2.92;1.40;;;19.30;46.30;;;;;;4950347;28;20440;-78
2022/11/24 12:42:33;;;;;;;2.10;1.27;;;19.40;48.00;;;;;;4968552;28;20102;-79
2022/11/24 12:44:59;;;;;;;3.95;1.38;;;;;;;;;;4967857;28;20391;-81
2022/11/24 12:47:35;;;;;;;4.90;1.83;;;20.00;45.80;;;;;;4967996;28;20019;-82
2022/11/24 12:50:06;;;;;;;1.67;1.20;;;20.70;56.70;;;;;;4968668;28;20023;-83
2022/11/24 12:52:38;;;;;;;4.28;1.67;;;20.60;44.90;;;;;;4968747;28;20090;-81
2022/11/24 12:55:11;;;;;;;2.05;1.30;;;20.00;55.80;;;;;;4968116;28;20038;-81
2022/11/24 12:57:47;;;;;;;4.25;1.48;;;19.80;45.50;;;;;;4951183;28;20034;-81
2022/11/24 13:00:22;;;;;;;3.60;1.50;;;19.00;47.00;;;;;;4968445;28;20522;-81
2022/11/24 13:03:09;;;;;;;2.58;1.73;;;18.40;48.20;;;;;;4968219;28;20035;-81
2022/11/24 13:06:01;;;;;;;1.67;1.23;;;18.10;61.60;;;;;;4968641;28;20026;-81
2022/11/24 13:08:28;;;;;;;8.55;2.25;;;17.40;50.20;;;;;;4968310;28;20126;-81
2022/11/24 13:10:54;;;;;;;2.10;1.50;;;;;;;;;;4968708;28;20508;-81
2022/11/24 13:13:25;;;;;;;8.45;2.42;;;17.00;50.80;;;;;;4968430;28;20029;-81
2022/11/24 13:15:53;;;;;;;3.60;1.15;;;16.80;50.70;;;;;;4967587;28;20502;-81
2022/11/24 13:18:46;;;;;;;3.35;2.83;;;16.70;50.50;;;;;;4977851;28;20026;-80
2022/11/24 13:21:29;;;;;;;3.10;1.23;;;16.70;50.00;;;;;;4974594;28;20058;-81
2022/11/24 13:24:00;;;;;;;2.03;1.38;;;16.70;49.90;;;;;;4971751;28;20396;-80
2022/11/24 13:26:43;;;;;;;2.75;1.60;;;16.60;49.80;;;;;;4972226;28;20030;-79
2022/11/24 13:29:36;;;;;;;3.25;2.63;;;16.40;49.70;;;;;;4971650;28;20103;-82
2022/11/24 13:32:02;;;;;;;4.18;1.63;;;;;;;;;;4971842;28;20031;-83
2022/11/24 13:34:40;;;;;;;2.60;1.67;;;16.00;50.30;;;;;;4971528;28;20101;-83
2022/11/24 13:37:21;;;;;;;2.83;2.45;;;15.70;51.80;;;;;;4971928;28;20093;-77
2022/11/24 13:39:51;;;;;;;8.60;1.50;;;16.30;63.20;;;;;;4974223;28;20023;-77
2022/11/24 13:42:18;;;;;;;4.15;1.63;;;16.10;50.50;;;;;;4971755;28;20594;-82
2022/11/24 13:44:44;;;;;;;1.73;1.50;;;;;;;;;;4971021;28;20089;-81